Time;durP1;ratioP1;P1;durP2;ratioP2;P2;SDS_P1;SDS_P2;PMS_P1;PMS_P2;Temp;Humidity;BMP_temperature;BMP_pressure;BME280_temperature;BME280_humidity;BME280_pressure;Samples;Min_cycle;Max_cycle;Signal;HPM_P1;HPM_P2
2023/01/28 00:01:16;;;;;;;11.03;9.20;;;6.00;98.10;;;;;;5012661;28;20992;-58
2023/01/28 00:03:43;;;;;;;11.23;9.10;;;6.00;98.10;;;;;;5012685;28;20474;-58
2023/01/28 00:06:12;;;;;;;12.90;9.30;;;6.00;98.20;;;;;;5013003;28;20450;-57
2023/01/28 00:08:38;;;;;;;12.77;9.70;;;6.00;98.20;;;;;;5016132;28;20454;-58
2023/01/28 00:11:07;;;;;;;14.63;9.40;;;6.00;98.20;;;;;;5016535;28;20443;-58
2023/01/28 00:13:34;;;;;;;11.57;10.10;;;6.00;98.30;;;;;;5016440;28;20475;-57
2023/01/28 00:16:06;;;;;;;12.77;9.80;;;6.00;98.30;;;;;;5016558;28;20519;-57
2023/01/28 00:18:33;;;;;;;12.70;9.57;;;6.00;98.40;;;;;;5016525;28;20801;-57
2023/01/28 00:21:01;;;;;;;10.43;9.30;;;6.00;98.40;;;;;;5016346;28;20491;-57
2023/01/28 00:23:29;;;;;;;14.53;9.97;;;6.00;98.30;;;;;;5015948;28;20827;-57
2023/01/28 00:25:58;;;;;;;14.97;9.00;;;6.00;98.30;;;;;;5016290;28;20459;-56
2023/01/28 00:28:25;;;;;;;11.00;9.70;;;6.00;98.40;;;;;;5016316;28;20435;-57
2023/01/28 00:30:52;;;;;;;12.20;9.00;;;6.00;98.30;;;;;;5016330;28;20448;-57
2023/01/28 00:33:20;;;;;;;9.87;8.00;;;6.00;98.20;;;;;;5016087;28;20837;-56
2023/01/28 00:35:56;;;;;;;9.10;8.33;;;6.00;98.10;;;;;;5015867;28;20955;-57
2023/01/28 00:38:23;;;;;;;8.13;7.33;;;6.00;98.00;;;;;;5016215;28;20474;-57
2023/01/28 00:40:50;;;;;;;9.40;8.50;;;6.00;97.90;;;;;;5015945;28;20490;-56
2023/01/28 00:43:16;;;;;;;8.03;7.30;;;6.00;97.90;;;;;;5015909;28;20479;-57
2023/01/28 00:45:43;;;;;;;9.23;8.33;;;6.00;97.90;;;;;;5016030;28;20459;-58
2023/01/28 00:48:10;;;;;;;7.70;7.00;;;6.00;97.90;;;;;;5015994;28;20482;-58
2023/01/28 00:50:39;;;;;;;8.63;7.80;;;6.00;97.70;;;;;;5015840;28;20459;-58
2023/01/28 00:53:05;;;;;;;7.83;7.13;;;6.00;97.50;;;;;;5015820;28;20844;-58
2023/01/28 00:55:32;;;;;;;8.33;7.37;;;6.00;97.30;;;;;;5015698;28;20448;-58
2023/01/28 00:57:59;;;;;;;7.47;6.83;;;6.00;97.20;;;;;;5015451;28;20959;-57
2023/01/28 01:00:26;;;;;;;7.53;6.73;;;6.00;97.10;;;;;;5015636;28;20465;-58
2023/01/28 01:02:52;;;;;;;8.53;7.73;;;6.00;97.00;;;;;;5015543;28;20534;-58
2023/01/28 01:05:19;;;;;;;7.73;6.97;;;6.00;96.90;;;;;;5015711;28;20446;-58
2023/01/28 01:07:48;;;;;;;7.77;7.07;;;6.00;96.80;;;;;;5015678;28;20861;-58
2023/01/28 01:10:16;;;;;;;8.20;6.80;;;6.00;96.80;;;;;;5015493;28;20853;-57
2023/01/28 01:12:45;;;;;;;9.47;8.57;;;6.00;96.80;;;;;;5015269;28;20476;-58
2023/01/28 01:15:12;;;;;;;9.13;8.30;;;6.00;96.90;;;;;;5015521;28;20463;-57
2023/01/28 01:17:40;;;;;;;8.33;7.50;;;5.90;96.90;;;;;;5015340;28;20497;-57
2023/01/28 01:20:11;;;;;;;9.20;8.40;;;5.90;96.80;;;;;;5014553;28;20455;-57
2023/01/28 01:22:38;;;;;;;9.53;8.53;;;5.90;96.80;;;;;;5015176;28;20491;-57
2023/01/28 01:25:08;;;;;;;10.67;9.57;;;5.90;96.80;;;;;;5015202;28;20813;-57
2023/01/28 01:27:35;;;;;;;12.97;11.67;;;5.90;96.80;;;;;;5015276;28;20478;-57
2023/01/28 01:30:02;;;;;;;12.77;11.43;;;5.90;96.80;;;;;;5014861;28;20462;-57
2023/01/28 01:32:30;;;;;;;13.47;11.97;;;5.90;96.80;;;;;;5015068;28;20468;-57
2023/01/28 01:34:56;;;;;;;11.27;10.10;;;5.80;96.90;;;;;;5014847;28;20960;-57
2023/01/28 01:37:23;;;;;;;11.37;10.17;;;5.90;97.00;;;;;;5014961;28;20526;-57
2023/01/28 01:39:50;;;;;;;12.60;11.37;;;5.80;97.00;;;;;;5015064;28;20443;-57
2023/01/28 01:42:18;;;;;;;11.20;10.10;;;5.80;97.00;;;;;;5014858;28;20569;-57
2023/01/28 01:44:58;;;;;;;13.83;12.40;;;5.80;97.00;;;;;;5014954;28;20474;-58
2023/01/28 01:47:38;;;;;;;13.33;12.00;;;5.70;96.90;;;;;;5014864;28;20447;-57
2023/01/28 01:50:12;;;;;;;14.37;12.50;;;5.70;96.90;;;;;;5014929;28;20440;-56
2023/01/28 01:52:42;;;;;;;14.10;12.33;;;5.70;97.00;;;;;;5014659;28;20513;-57
2023/01/28 01:55:14;;;;;;;14.70;13.20;;;5.70;97.00;;;;;;5015822;28;20451;-57
2023/01/28 01:57:44;;;;;;;14.87;13.27;;;5.70;97.10;;;;;;5014773;28;20432;-57
2023/01/28 02:00:11;;;;;;;14.00;12.50;;;5.70;97.10;;;;;;5015511;28;20459;-57
2023/01/28 02:02:40;;;;;;;15.50;13.83;;;5.70;97.00;;;;;;5014529;28;20497;-58
2023/01/28 02:05:09;;;;;;;14.53;13.00;;;5.70;96.80;;;;;;5014634;28;20462;-58
2023/01/28 02:07:37;;;;;;;13.13;11.30;;;5.60;96.70;;;;;;5014772;28;20442;-57
2023/01/28 02:10:05;;;;;;;14.40;12.67;;;5.60;96.60;;;;;;5014881;28;20451;-57
2023/01/28 02:12:36;;;;;;;13.97;12.47;;;5.60;96.70;;;;;;5014557;28;20520;-56
2023/01/28 02:15:08;;;;;;;13.40;12.00;;;5.60;96.70;;;;;;5014162;28;20986;-56
2023/01/28 02:17:36;;;;;;;13.50;11.60;;;5.60;96.60;;;;;;5015154;28;20439;-57
2023/01/28 02:20:05;;;;;;;15.00;13.20;;;5.60;96.50;;;;;;5015057;28;20464;-56
2023/01/28 02:23:02;;;;;;;12.67;11.33;;;5.60;96.50;;;;;;5015373;28;20501;-56
2023/01/28 02:26:04;;;;;;;13.70;12.30;;;5.50;96.20;;;;;;5015117;28;20851;-57
2023/01/28 02:28:44;;;;;;;14.83;13.20;;;5.50;96.40;;;;;;5013136;28;20450;-56
2023/01/28 02:31:18;;;;;;;15.03;12.87;;;5.50;96.70;;;;;;5014119;28;20437;-56
2023/01/28 02:33:52;;;;;;;14.57;12.77;;;5.50;96.70;;;;;;5014147;28;20463;-57
2023/01/28 02:36:27;;;;;;;15.70;14.10;;;5.50;96.70;;;;;;5014277;28;20443;-57
2023/01/28 02:38:55;;;;;;;14.90;12.30;;;5.40;96.70;;;;;;5013806;28;20474;-57
2023/01/28 02:41:28;;;;;;;14.37;12.87;;;5.40;96.60;;;;;;5013930;28;20497;-57
2023/01/28 02:43:56;;;;;;;17.20;11.70;;;5.40;96.70;;;;;;5013859;28;20561;-57
2023/01/28 02:49:25;;;;;;;12.57;11.27;;;5.40;96.70;;;;;;5013628;28;20554;-57
2023/01/28 02:52:08;;;;;;;13.83;11.70;;;5.40;96.60;;;;;;5013679;28;20440;-57
2023/01/28 02:54:43;;;;;;;11.47;10.37;;;5.40;96.70;;;;;;5013808;28;20432;-57
2023/01/28 02:57:21;;;;;;;12.50;10.80;;;5.40;96.70;;;;;;5013730;28;20433;-57
2023/01/28 02:59:57;;;;;;;14.20;11.07;;;5.40;96.60;;;;;;5013723;28;20443;-56
2023/01/28 03:02:33;;;;;;;13.20;12.00;;;5.40;96.60;;;;;;5013428;28;20514;-57
2023/01/28 03:05:05;;;;;;;13.80;12.30;;;5.50;96.60;;;;;;5013704;28;20439;-57
2023/01/28 03:07:35;;;;;;;13.87;12.20;;;5.40;96.60;;;;;;5013663;28;20454;-57
2023/01/28 03:10:05;;;;;;;14.30;12.20;;;5.40;96.40;;;;;;5013533;28;20438;-57
2023/01/28 03:37:47;;;;;;;16.43;14.73;;;5.20;96.20;;;;;;5013251;28;20442;-56
2023/01/28 03:40:14;;;;;;;17.00;15.20;;;5.20;95.90;;;;;;5013403;28;20435;-57
2023/01/28 03:42:41;;;;;;;15.43;12.90;;;5.20;95.90;;;;;;5014556;28;20546;-57
2023/01/28 03:45:09;;;;;;;18.43;15.20;;;5.20;96.00;;;;;;5017128;28;20454;-57
2023/01/28 03:47:39;;;;;;;16.17;14.47;;;5.20;96.00;;;;;;5017090;28;20454;-57
2023/01/28 03:50:06;;;;;;;15.90;13.77;;;5.20;95.90;;;;;;5017015;28;20538;-57
2023/01/28 03:52:33;;;;;;;15.23;13.33;;;5.20;96.10;;;;;;5016877;28;20484;-57
2023/01/28 03:55:00;;;;;;;14.83;13.03;;;5.20;96.10;;;;;;5016874;28;20456;-57
2023/01/28 03:57:30;;;;;;;13.33;11.93;;;5.20;95.70;;;;;;5016836;28;20458;-57
2023/01/28 03:59:56;;;;;;;13.83;12.53;;;5.20;95.40;;;;;;5015754;28;20457;-57
2023/01/28 04:02:25;;;;;;;15.33;12.40;;;5.20;95.30;;;;;;5016661;28;20497;-57
2023/01/28 04:04:53;;;;;;;13.00;11.60;;;5.10;95.10;;;;;;5015746;28;20454;-57
2023/01/28 04:07:20;;;;;;;15.20;11.90;;;5.10;95.10;;;;;;5016854;28;20451;-57
2023/01/28 04:09:47;;;;;;;12.90;10.30;;;5.10;95.10;;;;;;5016679;28;20458;-57
2023/01/28 04:12:14;;;;;;;10.60;9.50;;;5.10;95.00;;;;;;5016469;28;20475;-57
2023/01/28 04:14:41;;;;;;;11.23;10.07;;;5.10;95.00;;;;;;5016203;28;20461;-57
2023/01/28 04:17:09;;;;;;;11.60;10.40;;;5.10;94.90;;;;;;5016531;28;20450;-57
2023/01/28 04:19:37;;;;;;;14.53;12.10;;;5.10;95.40;;;;;;5016422;28;20471;-57
2023/01/28 04:22:07;;;;;;;13.10;11.80;;;5.10;95.00;;;;;;5016258;28;20486;-57
2023/01/28 04:24:33;;;;;;;16.57;11.03;;;5.10;95.00;;;;;;5016455;28;20435;-57
2023/01/28 04:27:00;;;;;;;12.10;10.83;;;5.10;94.90;;;;;;5016324;28;20462;-57
2023/01/28 04:29:27;;;;;;;13.40;10.93;;;5.10;95.00;;;;;;5016180;28;20469;-57
2023/01/28 04:31:55;;;;;;;13.00;11.60;;;5.10;94.90;;;;;;5016652;28;20430;-57
2023/01/28 04:34:22;;;;;;;12.87;11.20;;;5.10;94.80;;;;;;5015862;28;21016;-57
2023/01/28 04:36:48;;;;;;;13.40;11.77;;;5.10;94.90;;;;;;5016090;28;20462;-57
2023/01/28 04:39:17;;;;;;;14.83;12.80;;;5.10;95.10;;;;;;5015887;28;20470;-57
2023/01/28 04:41:43;;;;;;;15.27;12.53;;;5.10;95.10;;;;;;5016003;28;20487;-57
2023/01/28 04:44:10;;;;;;;15.17;13.57;;;5.10;95.10;;;;;;5015974;28;20471;-57
2023/01/28 04:46:37;;;;;;;15.10;13.07;;;5.10;94.90;;;;;;5015672;28;20940;-57
2023/01/28 04:49:03;;;;;;;15.87;12.30;;;5.10;94.60;;;;;;5016372;28;20453;-57
2023/01/28 04:51:30;;;;;;;13.53;11.80;;;5.00;94.20;;;;;;5016281;28;20447;-57
2023/01/28 04:53:57;;;;;;;15.17;12.10;;;5.00;94.20;;;;;;5014643;28;20478;-57
2023/01/28 04:56:25;;;;;;;14.50;12.37;;;5.00;94.20;;;;;;5015470;28;20824;-57
2023/01/28 04:58:52;;;;;;;15.13;12.00;;;5.00;94.20;;;;;;5015812;28;20441;-57
2023/01/28 05:01:19;;;;;;;14.30;12.20;;;5.00;94.20;;;;;;5015653;28;20445;-57
2023/01/28 05:03:45;;;;;;;14.63;13.07;;;5.00;94.20;;;;;;5015253;28;20863;-57
2023/01/28 05:06:12;;;;;;;15.50;12.90;;;4.90;94.20;;;;;;5015708;28;20452;-57
2023/01/28 05:08:39;;;;;;;12.87;11.53;;;5.00;94.30;;;;;;5015651;28;20526;-57
2023/01/28 05:11:07;;;;;;;14.33;12.80;;;5.00;94.40;;;;;;5015320;28;20829;-57
2023/01/28 05:13:35;;;;;;;15.07;13.47;;;5.00;94.60;;;;;;5015142;28;20483;-57
2023/01/28 05:16:01;;;;;;;15.50;13.00;;;5.00;94.60;;;;;;5015736;28;20794;-57
2023/01/28 05:18:28;;;;;;;15.20;11.53;;;5.00;94.50;;;;;;5015573;28;20980;-57
2023/01/28 05:20:55;;;;;;;13.30;11.80;;;5.00;94.50;;;;;;5015900;28;20454;-57
2023/01/28 05:23:22;;;;;;;13.60;11.80;;;5.00;94.40;;;;;;5015136;28;20500;-57
2023/01/28 05:25:48;;;;;;;15.20;13.63;;;5.00;94.40;;;;;;5015373;28;20476;-57
2023/01/28 05:28:16;;;;;;;15.53;12.77;;;5.00;94.30;;;;;;5015327;28;20454;-57
2023/01/28 05:30:44;;;;;;;14.37;13.00;;;5.00;94.10;;;;;;5015273;28;20465;-57
2023/01/28 05:33:10;;;;;;;13.40;12.20;;;5.00;93.90;;;;;;5015059;28;20477;-57
2023/01/28 05:35:37;;;;;;;13.70;12.30;;;5.00;93.60;;;;;;5015078;28;20453;-57
2023/01/28 05:38:05;;;;;;;13.83;12.43;;;5.00;93.50;;;;;;5014805;28;20466;-57
2023/01/28 05:40:32;;;;;;;13.23;11.93;;;5.00;93.50;;;;;;5014689;28;20454;-57
2023/01/28 05:42:59;;;;;;;13.30;11.93;;;5.00;93.60;;;;;;5014783;28;20491;-57
2023/01/28 05:45:26;;;;;;;14.60;13.10;;;5.00;93.60;;;;;;5014585;28;20961;-57
2023/01/28 05:47:54;;;;;;;17.20;13.90;;;5.00;93.60;;;;;;5014857;28;20458;-57
2023/01/28 05:50:21;;;;;;;18.87;14.97;;;5.00;93.60;;;;;;5014798;28;20450;-57
2023/01/28 05:52:48;;;;;;;15.60;14.00;;;5.00;93.60;;;;;;5014368;28;21005;-57
2023/01/28 05:55:15;;;;;;;16.07;13.70;;;5.00;93.50;;;;;;5014449;28;20459;-57
2023/01/28 05:57:43;;;;;;;18.83;15.47;;;5.00;93.50;;;;;;5014671;28;20455;-57
2023/01/28 06:00:12;;;;;;;21.00;15.47;;;5.00;93.40;;;;;;5014566;28;20467;-57
2023/01/28 06:02:39;;;;;;;17.00;15.07;;;5.00;93.40;;;;;;5014062;28;20581;-56
2023/01/28 06:05:08;;;;;;;18.77;16.47;;;5.00;93.20;;;;;;5013970;28;20506;-56
2023/01/28 06:07:35;;;;;;;18.67;14.90;;;5.00;92.90;;;;;;5014639;28;20440;-57
2023/01/28 06:10:02;;;;;;;15.53;12.80;;;4.90;92.90;;;;;;5014538;28;20449;-57
2023/01/28 06:12:29;;;;;;;14.97;13.47;;;4.90;92.90;;;;;;5014109;28;20978;-57
2023/01/28 06:14:56;;;;;;;14.57;12.87;;;4.90;92.50;;;;;;5014096;28;20946;-58
2023/01/28 06:17:22;;;;;;;16.23;14.40;;;4.90;92.40;;;;;;5014344;28;20454;-57
2023/01/28 06:19:50;;;;;;;16.70;14.43;;;4.80;92.60;;;;;;5014280;28;20462;-57
2023/01/28 06:22:18;;;;;;;16.20;14.50;;;4.90;92.70;;;;;;5014079;28;20537;-57
2023/01/28 06:24:44;;;;;;;16.90;15.17;;;4.90;92.80;;;;;;5014242;28;20462;-57
2023/01/28 06:27:11;;;;;;;15.90;14.20;;;4.90;93.10;;;;;;5014104;28;20474;-57
2023/01/28 06:29:38;;;;;;;14.80;13.00;;;4.90;93.20;;;;;;5013947;28;20956;-57
2023/01/28 06:32:06;;;;;;;15.10;13.60;;;4.90;93.30;;;;;;5014071;28;20441;-57
2023/01/28 06:34:33;;;;;;;15.20;13.60;;;4.90;93.20;;;;;;5012885;28;20453;-57
2023/01/28 06:36:59;;;;;;;17.40;14.10;;;4.90;93.20;;;;;;5014070;28;20459;-57
2023/01/28 06:39:30;;;;;;;15.47;13.30;;;4.90;93.10;;;;;;5013578;28;20466;-57
2023/01/28 06:41:57;;;;;;;16.70;15.00;;;4.90;92.90;;;;;;5013869;28;20506;-57
2023/01/28 06:44:24;;;;;;;16.83;15.03;;;4.90;92.50;;;;;;5013810;28;20457;-57
2023/01/28 06:46:51;;;;;;;16.80;14.23;;;4.90;92.40;;;;;;5013690;28;20569;-57
2023/01/28 06:49:19;;;;;;;15.83;14.10;;;4.90;92.40;;;;;;5013872;28;20463;-57
2023/01/28 06:51:46;;;;;;;18.00;14.00;;;4.80;92.30;;;;;;5013948;28;20463;-57
2023/01/28 06:54:12;;;;;;;17.07;14.03;;;4.80;92.50;;;;;;5026470;28;20467;-57
2023/01/28 06:56:41;;;;;;;15.63;14.00;;;4.80;92.50;;;;;;5033284;28;20988;-57
2023/01/28 06:59:08;;;;;;;15.40;13.80;;;4.80;92.50;;;;;;5034284;28;20436;-57
2023/01/28 07:01:35;;;;;;;16.47;14.87;;;4.80;92.60;;;;;;5033223;28;20461;-57
2023/01/28 07:04:02;;;;;;;15.77;14.10;;;4.90;92.70;;;;;;5033252;28;20493;-57
2023/01/28 07:06:29;;;;;;;17.10;15.03;;;4.80;92.60;;;;;;5033224;28;20450;-57
2023/01/28 07:08:55;;;;;;;15.43;13.83;;;4.80;92.60;;;;;;5033498;28;20437;-57
2023/01/28 07:11:22;;;;;;;17.03;15.20;;;4.80;92.60;;;;;;5033390;28;20475;-57
2023/01/28 07:13:50;;;;;;;16.47;14.77;;;4.90;92.90;;;;;;5033090;28;20471;-57
2023/01/28 07:16:17;;;;;;;15.77;14.20;;;4.80;92.90;;;;;;5033455;28;20470;-58
2023/01/28 07:18:44;;;;;;;16.77;14.90;;;4.90;92.70;;;;;;5036878;28;20454;-57
2023/01/28 07:21:11;;;;;;;14.90;13.30;;;4.80;91.90;;;;;;5037373;28;20741;-57
2023/01/28 07:23:38;;;;;;;15.73;14.23;;;4.80;91.90;;;;;;5037126;28;20527;-57
2023/01/28 07:26:06;;;;;;;16.00;13.33;;;4.80;91.70;;;;;;5037034;28;20498;-57
2023/01/28 07:28:33;;;;;;;15.73;14.17;;;4.80;91.70;;;;;;5037252;28;20458;-57
2023/01/28 07:31:01;;;;;;;16.07;14.33;;;4.80;91.60;;;;;;5037152;28;20454;-58
2023/01/28 07:33:28;;;;;;;15.57;13.97;;;4.70;91.50;;;;;;5036724;28;20808;-57
2023/01/28 07:35:54;;;;;;;15.37;13.87;;;4.70;91.50;;;;;;5035840;28;20457;-57
2023/01/28 07:38:21;;;;;;;18.77;14.80;;;4.70;91.50;;;;;;5037180;28;20465;-57
2023/01/28 07:40:48;;;;;;;15.47;13.87;;;4.70;91.40;;;;;;5037080;28;20442;-57
2023/01/28 07:43:15;;;;;;;15.20;13.70;;;4.70;91.40;;;;;;5036865;28;20484;-58
2023/01/28 07:45:41;;;;;;;15.90;13.97;;;4.80;91.40;;;;;;5036999;28;20441;-58
2023/01/28 07:48:12;;;;;;;19.37;15.93;;;4.80;91.40;;;;;;5036649;28;20445;-57
2023/01/28 07:50:39;;;;;;;16.60;14.90;;;4.80;91.40;;;;;;5036531;28;20903;-57
2023/01/28 07:53:07;;;;;;;18.60;16.10;;;4.80;91.40;;;;;;5036611;28;20477;-57
2023/01/28 07:55:35;;;;;;;18.63;15.13;;;4.80;91.40;;;;;;5036754;28;20834;-57
2023/01/28 07:58:03;;;;;;;19.10;13.90;;;4.80;91.10;;;;;;5036817;28;20438;-57
2023/01/28 08:00:32;;;;;;;16.60;14.23;;;4.80;90.90;;;;;;5036668;28;20453;-56
2023/01/28 08:03:01;;;;;;;15.77;14.20;;;4.80;90.70;;;;;;5036437;28;20486;-56
2023/01/28 08:05:37;;;;;;;16.93;15.23;;;4.80;90.40;;;;;;5036632;28;20804;-56
2023/01/28 08:08:05;;;;;;;15.53;13.83;;;4.80;90.20;;;;;;5036424;28;20942;-57
2023/01/28 08:10:31;;;;;;;13.80;12.40;;;4.80;90.30;;;;;;5036506;28;20454;-57
2023/01/28 08:12:58;;;;;;;15.53;13.90;;;4.80;90.40;;;;;;5036260;28;20489;-57
2023/01/28 08:15:26;;;;;;;16.33;14.73;;;4.80;90.70;;;;;;5017409;28;20478;-57
2023/01/28 08:17:54;;;;;;;14.43;12.93;;;4.80;90.20;;;;;;5016535;28;20454;-56
2023/01/28 08:20:21;;;;;;;16.60;13.87;;;4.80;90.20;;;;;;5016220;28;20458;-57
2023/01/28 08:22:49;;;;;;;16.30;14.07;;;4.80;90.20;;;;;;5016430;28;20513;-58
2023/01/28 08:25:16;;;;;;;17.50;14.63;;;4.90;90.10;;;;;;5016473;28;20437;-56
2023/01/28 08:27:43;;;;;;;15.87;14.27;;;4.80;89.90;;;;;;5016114;28;20440;-57
2023/01/28 08:30:12;;;;;;;15.37;13.57;;;4.90;90.00;;;;;;5016188;28;20934;-57
2023/01/28 08:32:38;;;;;;;15.50;13.70;;;4.90;89.10;;;;;;5016295;28;20471;-57
2023/01/28 08:35:06;;;;;;;14.90;13.13;;;4.90;89.10;;;;;;5016471;28;20458;-57
2023/01/28 08:37:33;;;;;;;15.53;13.93;;;4.90;89.30;;;;;;5016058;28;20469;-57
2023/01/28 08:40:01;;;;;;;17.27;13.93;;;5.00;89.30;;;;;;5016234;28;20451;-57
2023/01/28 08:42:28;;;;;;;16.63;14.97;;;5.00;89.20;;;;;;5016094;28;20485;-57
2023/01/28 08:44:55;;;;;;;15.60;14.10;;;5.00;89.30;;;;;;5016057;28;20450;-57
2023/01/28 08:47:21;;;;;;;20.03;15.87;;;5.00;89.00;;;;;;5016570;28;20461;-57
2023/01/28 08:49:48;;;;;;;16.20;13.57;;;5.00;88.50;;;;;;5015896;28;20756;-57
2023/01/28 08:52:15;;;;;;;16.10;14.40;;;5.10;88.30;;;;;;5015890;28;20470;-57
2023/01/28 08:54:42;;;;;;;17.43;15.63;;;5.10;88.70;;;;;;5016022;28;20438;-57
2023/01/28 08:57:10;;;;;;;20.27;15.97;;;5.10;89.00;;;;;;5015938;28;20458;-57
2023/01/28 08:59:39;;;;;;;17.20;14.43;;;5.20;89.40;;;;;;5015963;28;20447;-57
2023/01/28 09:02:06;;;;;;;17.40;15.60;;;5.20;89.50;;;;;;5015846;28;20900;-57
2023/01/28 09:04:33;;;;;;;18.53;14.60;;;5.30;89.00;;;;;;5016043;28;20483;-57
2023/01/28 09:07:00;;;;;;;17.83;15.57;;;5.30;88.80;;;;;;5015755;28;20458;-57
2023/01/28 09:09:27;;;;;;;19.23;17.20;;;5.30;88.30;;;;;;5015469;28;20466;-57
2023/01/28 09:11:54;;;;;;;21.93;17.70;;;5.40;88.20;;;;;;5015997;28;20468;-57
2023/01/28 09:14:23;;;;;;;23.67;19.50;;;5.40;87.80;;;;;;5015620;28;20942;-57
2023/01/28 09:16:49;;;;;;;21.33;18.50;;;5.50;87.30;;;;;;5015881;28;20435;-57
2023/01/28 09:19:16;;;;;;;21.77;16.37;;;5.50;87.00;;;;;;5016055;28;20486;-56
2023/01/28 09:21:43;;;;;;;20.30;16.23;;;5.60;86.60;;;;;;5016202;28;20443;-56
2023/01/28 09:24:11;;;;;;;22.07;17.80;;;5.70;86.00;;;;;;5016692;28;20491;-56
2023/01/28 09:26:38;;;;;;;21.03;17.23;;;5.70;86.20;;;;;;5017036;28;20443;-56
2023/01/28 09:29:05;;;;;;;21.80;19.13;;;5.70;86.20;;;;;;5016651;28;20546;-56
2023/01/28 09:31:33;;;;;;;21.80;17.83;;;5.80;86.10;;;;;;5015134;28;20447;-56
2023/01/28 09:34:00;;;;;;;18.87;16.87;;;5.80;86.10;;;;;;5015180;28;20493;-58
2023/01/28 09:36:26;;;;;;;23.57;17.80;;;5.90;86.80;;;;;;5015246;28;20443;-57
2023/01/28 09:38:53;;;;;;;20.30;18.07;;;6.00;87.20;;;;;;5014832;28;20463;-57
2023/01/28 09:41:25;;;;;;;21.90;17.90;;;6.20;87.50;;;;;;5015035;28;20451;-56
2023/01/28 09:44:21;;;;;;;22.93;18.47;;;6.30;85.90;;;;;;5015058;28;20490;-57
2023/01/28 09:46:50;;;;;;;23.20;18.60;;;6.40;85.10;;;;;;5015016;28;20440;-57
2023/01/28 09:49:22;;;;;;;24.00;19.73;;;6.50;83.80;;;;;;5014900;28;20452;-56
2023/01/28 09:51:52;;;;;;;19.43;17.43;;;6.50;83.40;;;;;;5014695;28;20446;-56
2023/01/28 09:54:27;;;;;;;21.13;17.40;;;6.50;83.40;;;;;;5014877;28;20440;-56
2023/01/28 09:57:04;;;;;;;24.37;20.50;;;6.50;83.80;;;;;;5014719;28;20510;-56
2023/01/28 09:59:33;;;;;;;26.23;21.00;;;6.60;84.40;;;;;;5014442;28;20908;-57
2023/01/28 10:02:14;;;;;;;22.73;18.80;;;6.60;83.90;;;;;;5014516;28;20455;-57
2023/01/28 10:04:53;;;;;;;24.13;20.17;;;6.60;83.50;;;;;;5014429;28;20475;-57
2023/01/28 10:07:36;;;;;;;24.67;20.10;;;6.60;83.10;;;;;;5014614;28;20437;-57
2023/01/28 10:10:09;;;;;;;23.67;20.37;;;6.70;83.20;;;;;;5014515;28;20439;-57
2023/01/28 10:13:03;;;;;;;21.60;18.03;;;6.60;82.30;;;;;;5014516;28;20472;-57
2023/01/28 10:15:54;;;;;;;21.27;18.70;;;6.60;81.60;;;;;;4998912;28;20455;-57
2023/01/28 10:18:35;;;;;;;20.23;17.53;;;6.60;81.40;;;;;;5015040;28;20455;-57
2023/01/28 10:21:07;;;;;;;27.30;22.20;;;6.60;81.70;;;;;;5014386;28;20441;-56
2023/01/28 10:23:44;;;;;;;25.90;21.17;;;6.60;82.20;;;;;;5014034;28;20494;-56
2023/01/28 10:26:21;;;;;;;22.90;20.40;;;6.50;82.30;;;;;;5014289;28;20439;-56
2023/01/28 10:28:54;;;;;;;22.43;20.03;;;6.50;81.80;;;;;;5014249;28;20443;-56
2023/01/28 10:31:23;;;;;;;28.17;21.73;;;6.50;82.00;;;;;;5014181;28;20482;-56
2023/01/28 10:33:51;;;;;;;31.40;23.63;;;6.40;82.00;;;;;;5014052;28;20464;-55
2023/01/28 10:36:19;;;;;;;31.23;24.90;;;6.40;82.00;;;;;;5014051;28;20459;-56
2023/01/28 10:38:46;;;;;;;34.10;23.97;;;6.40;81.10;;;;;;5014013;28;20464;-56
2023/01/28 10:41:19;;;;;;;33.30;26.00;;;6.30;80.70;;;;;;5013999;28;20455;-56
2023/01/28 10:43:48;;;;;;;32.77;26.00;;;6.30;79.20;;;;;;5013459;28;20847;-57
2023/01/28 10:46:18;;;;;;;30.63;23.83;;;6.30;78.70;;;;;;5013578;28;20971;-56
2023/01/28 10:48:48;;;;;;;37.40;27.87;;;6.30;78.90;;;;;;5013971;28;20546;-57
2023/01/28 10:51:18;;;;;;;38.10;27.90;;;6.30;79.50;;;;;;5012674;28;20450;-56
2023/01/28 10:53:46;;;;;;;33.90;26.70;;;6.30;79.30;;;;;;5013728;28;20483;-56
2023/01/28 10:56:17;;;;;;;32.70;25.23;;;6.20;78.40;;;;;;5014627;28;20448;-56
2023/01/28 10:58:59;;;;;;;33.60;25.67;;;6.20;78.40;;;;;;5013806;28;20451;-57
2023/01/28 11:01:37;;;;;;;29.87;23.40;;;6.20;77.10;;;;;;5013659;28;20440;-56
2023/01/28 11:04:04;;;;;;;28.03;22.27;;;6.30;77.80;;;;;;5013563;28;20487;-57
2023/01/28 11:06:32;;;;;;;30.40;22.90;;;6.20;78.10;;;;;;5013656;28;20443;-56
2023/01/28 11:08:59;;;;;;;34.50;22.97;;;6.20;77.40;;;;;;5013711;28;20466;-56
2023/01/28 11:11:28;;;;;;;32.90;24.97;;;6.20;77.40;;;;;;5013531;28;20459;-57
2023/01/28 11:13:57;;;;;;;31.70;23.97;;;6.20;78.20;;;;;;5013265;28;20488;-56
2023/01/28 11:16:25;;;;;;;31.70;24.43;;;6.30;79.00;;;;;;5013521;28;20459;-57
2023/01/28 11:18:54;;;;;;;31.53;25.30;;;6.30;79.40;;;;;;5013575;28;20460;-57
2023/01/28 11:21:22;;;;;;;30.63;24.40;;;6.30;77.50;;;;;;5013554;28;20800;-57
2023/01/28 11:23:53;;;;;;;36.17;27.70;;;6.30;76.40;;;;;;5013402;28;20483;-57
2023/01/28 11:26:23;;;;;;;34.03;24.87;;;6.30;76.90;;;;;;5013602;28;20437;-58
2023/01/28 11:28:51;;;;;;;32.40;24.23;;;6.40;77.10;;;;;;5013397;28;20456;-56
2023/01/28 11:31:20;;;;;;;34.67;24.97;;;6.40;77.00;;;;;;5013425;28;20459;-57
2023/01/28 11:33:50;;;;;;;33.20;25.60;;;6.20;75.50;;;;;;5013054;28;20475;-58
2023/01/28 11:36:19;;;;;;;36.03;29.13;;;6.10;75.60;;;;;;5013439;28;20424;-56
2023/01/28 11:38:53;;;;;;;31.70;26.87;;;6.10;76.70;;;;;;5012989;28;20472;-56
2023/01/28 11:41:27;;;;;;;36.20;27.93;;;6.10;76.70;;;;;;5013312;28;20436;-56
2023/01/28 11:43:55;;;;;;;33.40;26.27;;;6.10;77.40;;;;;;5013254;28;20483;-56
2023/01/28 11:46:49;;;;;;;31.90;26.13;;;6.10;77.20;;;;;;5013362;28;20436;-57
2023/01/28 11:49:26;;;;;;;31.47;22.93;;;6.10;77.30;;;;;;5013369;28;20947;-57
2023/01/28 11:52:03;;;;;;;32.90;25.63;;;6.10;78.60;;;;;;5014147;28;20443;-57
2023/01/28 11:54:45;;;;;;;31.43;25.47;;;6.20;79.50;;;;;;5013230;28;20499;-56
2023/01/28 11:57:23;;;;;;;32.93;24.80;;;6.30;79.10;;;;;;5013519;28;20435;-57
2023/01/28 12:00:28;;;;;;;29.47;23.90;;;6.30;78.80;;;;;;5013495;28;20497;-56
2023/01/28 12:03:06;;;;;;;31.07;24.37;;;6.40;78.50;;;;;;5012155;28;20814;-57
2023/01/28 12:05:47;;;;;;;31.40;24.37;;;6.50;78.90;;;;;;5016354;28;20478;-57
2023/01/28 12:08:24;;;;;;;33.47;24.97;;;6.60;78.30;;;;;;5016770;28;20440;-58
2023/01/28 12:11:17;;;;;;;33.80;25.00;;;6.70;77.60;;;;;;5016677;28;20439;-57
2023/01/28 12:13:57;;;;;;;30.33;23.50;;;6.70;77.40;;;;;;5016659;28;20468;-57
2023/01/28 12:16:50;;;;;;;37.03;27.00;;;6.70;77.20;;;;;;5016745;28;20439;-56
2023/01/28 12:19:38;;;;;;;38.07;25.47;;;6.60;79.50;;;;;;5016290;28;20818;-57
2023/01/28 12:22:18;;;;;;;31.97;24.27;;;6.60;78.70;;;;;;5016212;28;20979;-58
2023/01/28 12:25:05;;;;;;;33.23;25.87;;;6.50;78.30;;;;;;5016158;28;20471;-58
2023/01/28 12:27:46;;;;;;;35.77;25.70;;;6.50;78.30;;;;;;5016266;28;20442;-58
2023/01/28 12:30:24;;;;;;;30.80;23.60;;;6.50;78.00;;;;;;5016435;28;20904;-58
2023/01/28 12:33:06;;;;;;;31.87;24.47;;;6.50;78.10;;;;;;5016302;28;20474;-57
2023/01/28 12:35:49;;;;;;;30.10;22.77;;;6.50;78.00;;;;;;5016535;28;20510;-57
2023/01/28 12:38:27;;;;;;;31.50;24.80;;;6.50;76.80;;;;;;5016028;28;20463;-58
2023/01/28 12:41:01;;;;;;;30.77;24.07;;;6.50;76.50;;;;;;5016029;28;20467;-58
2023/01/28 12:43:45;;;;;;;31.30;23.47;;;6.60;76.90;;;;;;5016211;28;20471;-58
2023/01/28 12:46:22;;;;;;;34.63;24.73;;;6.70;77.40;;;;;;5015863;28;20539;-57
2023/01/28 12:48:54;;;;;;;35.10;25.47;;;6.80;77.20;;;;;;5015884;28;20439;-58
2023/01/28 12:51:27;;;;;;;36.23;27.80;;;6.80;76.40;;;;;;5015936;28;20436;-57
2023/01/28 12:53:58;;;;;;;34.67;26.10;;;6.90;76.00;;;;;;5015572;28;21014;-57
2023/01/28 12:56:29;;;;;;;28.20;23.83;;;7.00;75.40;;;;;;5015953;28;20431;-57
2023/01/28 12:59:02;;;;;;;37.23;24.87;;;7.00;75.00;;;;;;5015865;28;20432;-58
2023/01/28 13:01:37;;;;;;;29.13;22.90;;;7.10;75.10;;;;;;5015932;28;20441;-57
2023/01/28 13:04:09;;;;;;;25.03;21.40;;;7.20;75.40;;;;;;5015722;28;20482;-57
2023/01/28 13:06:41;;;;;;;28.17;23.67;;;7.20;74.80;;;;;;5015736;28;20451;-57
2023/01/28 13:09:15;;;;;;;28.80;24.63;;;7.30;75.00;;;;;;5015891;28;20447;-57
2023/01/28 13:11:42;;;;;;;32.50;24.90;;;7.40;75.50;;;;;;5015739;28;20440;-57
2023/01/28 13:14:13;;;;;;;29.70;25.83;;;7.60;76.40;;;;;;5014901;28;20471;-57
2023/01/28 13:16:40;;;;;;;32.70;26.43;;;8.20;74.40;;;;;;5015189;28;20487;-58
2023/01/28 13:19:21;;;;;;;29.27;25.17;;;8.90;69.80;;;;;;5015356;28;20478;-58
2023/01/28 13:21:48;;;;;;;33.67;25.10;;;9.60;66.10;;;;;;5015327;28;20446;-57